^^
Saratoga-Weather Station Historical Data
Daily Summary for November 13, 2020 Units:  English    Metric   Both
Daily Weekly Monthly Yearly Custom
  High: Low: Average:
Temperature: 58.8 °F 40.1 °F 47.5 °F
Dew Point: 52.9 °F 39 °F 45.5 °F
Humidity: 97% 78% 93%
Wind Speed: 4mph 0mph 0.3mph
Wind Gust: 8mph - -
Wind- - SE
Pressure: 30.1 in 30 in -
Precipitation: 0 in    
Historical Graphs
 
 
Tabular Data for November 13, 2020
Time Temperature Dew Point Pressure Wind Wind Speed Wind Gust Humidity Rainfall Rate (Hourly) solar
00:04 40.8 °F 39.7 °F 30.1 in ESE 0.9 mph 1 mph 96% 0 in 0 W/m2
00:09 41.2 °F 40.1 °F 30.1 in ESE 0.9 mph 1 mph 96% 0 in 0 W/m2
00:14 41.2 °F 40.1 °F 30.1 in Calm     96% 0 in 0 W/m2
00:19 41.4 °F 40.3 °F 30.1 in Calm     96% 0 in 0 W/m2
00:24 41.4 °F 40.3 °F 30.1 in Calm     96% 0 in 0 W/m2
00:29 41.5 °F 40.5 °F 30.1 in Calm     96% 0 in 0 W/m2
00:34 41.7 °F 40.6 °F 30.1 in Calm     96% 0 in 0 W/m2
00:39 41.7 °F 40.6 °F 30.1 in Calm     96% 0 in 0 W/m2
00:44 41.9 °F 40.8 °F 30.1 in Calm     96% 0 in 0 W/m2
00:49 41.9 °F 40.8 °F 30.1 in Calm     96% 0 in 0 W/m2
00:54 41.9 °F 40.8 °F 30.1 in Calm     96% 0 in 0 W/m2
00:59 41.7 °F 40.6 °F 30.1 in Calm     96% 0 in 0 W/m2
01:04 41.5 °F 40.5 °F 30.1 in Calm     96% 0 in 0 W/m2
01:09 41.4 °F 40.3 °F 30.1 in Calm     96% 0 in 0 W/m2
01:14 41.2 °F 40.1 °F 30.1 in Calm     96% 0 in 0 W/m2
01:19 40.8 °F 39.7 °F 30.1 in Calm     96% 0 in 0 W/m2
01:24 40.6 °F 39.6 °F 30.1 in Calm     96% 0 in 0 W/m2
01:29 40.5 °F 39.4 °F 30.1 in Calm     96% 0 in 0 W/m2
01:34 40.5 °F 39.4 °F 30.1 in Calm     96% 0 in 0 W/m2
01:39 40.3 °F 39.2 °F 30.1 in Calm     96% 0 in 0 W/m2
01:44 40.3 °F 39.2 °F 30.1 in Calm     96% 0 in 0 W/m2
01:49 40.1 °F 39 °F 30.1 in Calm     96% 0 in 0 W/m2
01:54 40.3 °F 39.2 °F 30.1 in Calm     96% 0 in 0 W/m2
01:59 40.3 °F 39.2 °F 30.1 in Calm     96% 0 in 0 W/m2
02:04 40.3 °F 39.2 °F 30.1 in Calm     96% 0 in 0 W/m2
02:09 40.5 °F 39.4 °F 30.1 in Calm     96% 0 in 0 W/m2
02:14 40.5 °F 39.4 °F 30.1 in Calm     96% 0 in 0 W/m2
02:19 40.6 °F 39.6 °F 30.1 in Calm     96% 0 in 0 W/m2
02:24 40.6 °F 39.6 °F 30.1 in Calm     96% 0 in 0 W/m2
02:29 40.5 °F 39.4 °F 30.1 in Calm     96% 0 in 0 W/m2
02:34 40.5 °F 39.4 °F 30.1 in Calm     96% 0 in 0 W/m2
02:39 40.5 °F 39.4 °F 30.1 in Calm     96% 0 in 0 W/m2
02:44 40.5 °F 39.4 °F 30.1 in Calm     96% 0 in 0 W/m2
02:49 40.5 °F 39.4 °F 30.1 in Calm     96% 0 in 0 W/m2
02:54 40.6 °F 39.6 °F 30.1 in Calm     96% 0 in 0 W/m2
02:59 40.6 °F 39.6 °F 30.1 in Calm     96% 0 in 0 W/m2
03:04 40.6 °F 39.6 °F 30.1 in Calm     96% 0 in 0 W/m2
03:09 40.8 °F 39.7 °F 30.1 in Calm     96% 0 in 0 W/m2
03:14 40.8 °F 39.7 °F 30.1 in Calm     96% 0 in 0 W/m2
03:19 41 °F 39.9 °F 30.1 in Calm     96% 0 in 0 W/m2
03:24 41 °F 39.9 °F 30.1 in Calm     96% 0 in 0 W/m2
03:29 40.8 °F 39.7 °F 30.1 in Calm     96% 0 in 0 W/m2
03:35 40.8 °F 39.7 °F 30.1 in Calm     96% 0 in 0 W/m2
03:40 40.8 °F 39.7 °F 30.1 in Calm     96% 0 in 0 W/m2
03:45 40.8 °F 39.7 °F 30.1 in Calm     96% 0 in 0 W/m2
03:50 40.8 °F 39.7 °F 30.1 in Calm     96% 0 in 0 W/m2
03:55 40.8 °F 39.7 °F 30.1 in Calm     96% 0 in 0 W/m2
04:00 40.8 °F 39.7 °F 30.1 in Calm     96% 0 in 0 W/m2
04:05 40.8 °F 39.7 °F 30.1 in Calm     96% 0 in 0 W/m2
04:10 40.8 °F 39.7 °F 30.1 in Calm     96% 0 in 0 W/m2
04:15 40.8 °F 39.7 °F 30.1 in Calm     96% 0 in 0 W/m2
04:20 40.8 °F 40.1 °F 30.1 in Calm     97% 0 in 0 W/m2
04:25 40.8 °F 40.1 °F 30.1 in Calm     97% 0 in 0 W/m2
04:30 41 °F 40.3 °F 30.1 in Calm     97% 0 in 0 W/m2
04:35 41.2 °F 40.5 °F 30.1 in Calm     97% 0 in 0 W/m2
04:40 41.2 °F 40.5 °F 30.1 in Calm     97% 0 in 0 W/m2
04:45 41.2 °F 40.5 °F 30.1 in Calm     97% 0 in 0 W/m2
04:50 41.4 °F 40.6 °F 30.1 in Calm     97% 0 in 0 W/m2
04:55 41.5 °F 40.8 °F 30.1 in Calm     97% 0 in 0 W/m2
05:00 41.5 °F 40.8 °F 30.1 in Calm     97% 0 in 0 W/m2
05:05 41.5 °F 40.8 °F 30.1 in Calm     97% 0 in 0 W/m2
05:10 41.5 °F 40.8 °F 30.1 in Calm     97% 0 in 0 W/m2
05:15 41.5 °F 40.8 °F 30.1 in Calm     97% 0 in 0 W/m2
05:20 41.5 °F 40.8 °F 30.1 in Calm     97% 0 in 0 W/m2
05:25 41.5 °F 40.8 °F 30.1 in Calm     97% 0 in 0 W/m2
05:30 41.5 °F 40.8 °F 30.1 in Calm     97% 0 in 0 W/m2
05:35 41.5 °F 40.8 °F 30.1 in Calm     97% 0 in 0 W/m2
05:40 41.7 °F 41 °F 30.1 in Calm     97% 0 in 0 W/m2
05:45 41.7 °F 41 °F 30.1 in Calm     97% 0 in 0 W/m2
05:50 41.7 °F 41 °F 30.1 in Calm     97% 0 in 0 W/m2
05:55 41.7 °F 41 °F 30.1 in Calm     97% 0 in 0 W/m2
06:00 41.7 °F 41 °F 30.1 in Calm     97% 0 in 0 W/m2
06:05 41.9 °F 41.2 °F 30.1 in Calm     97% 0 in 0 W/m2
06:10 41.9 °F 41.2 °F 30.1 in Calm     97% 0 in 0 W/m2
06:15 42.1 °F 41.4 °F 30.1 in Calm     97% 0 in 0 W/m2
06:20 42.1 °F 41.4 °F 30.1 in Calm     97% 0 in 0 W/m2
06:25 42.1 °F 41.4 °F 30.1 in Calm     97% 0 in 0 W/m2
06:30 42.1 °F 41.4 °F 30.1 in Calm     97% 0 in 0 W/m2
06:35 42.1 °F 41.4 °F 30.1 in North 0.9 mph 2 mph 97% 0 in 0 W/m2
06:40 42.1 °F 41.4 °F 30.1 in Calm   1 mph 97% 0 in 0 W/m2
06:45 42.1 °F 41.4 °F 30.1 in Calm     97% 0 in 0 W/m2
06:50 42.1 °F 41.4 °F 30.1 in Calm   1 mph 97% 0 in 0 W/m2
06:55 42.1 °F 41.4 °F 30.1 in Calm     97% 0 in 0 W/m2
07:00 42.3 °F 41.5 °F 30.1 in Calm     97% 0 in 0 W/m2
07:05 42.3 °F 41.5 °F 30.1 in Calm     97% 0 in 0 W/m2
07:10 42.3 °F 41.5 °F 30.1 in Calm     97% 0 in 0 W/m2
07:15 42.3 °F 41.5 °F 30.1 in Calm     97% 0 in 0 W/m2
07:20 42.3 °F 41.5 °F 30.1 in Calm     97% 0 in 0 W/m2
07:25 42.3 °F 41.5 °F 30.1 in Calm   1 mph 97% 0 in 0 W/m2
07:30 42.4 °F 41.7 °F 30.1 in North 0.9 mph 1 mph 97% 0 in 0 W/m2
07:35 42.4 °F 41.7 °F 30.1 in North 0.9 mph 2 mph 97% 0 in 0 W/m2
07:40 42.6 °F 41.9 °F 30.1 in West 2 mph 3 mph 97% 0 in 0 W/m2
07:45 42.6 °F 41.9 °F 30.1 in Calm   1 mph 97% 0 in 0 W/m2
07:50 42.8 °F 42.1 °F 30.1 in Calm     97% 0 in 0 W/m2
07:55 43 °F 42.3 °F 30.1 in Calm     97% 0 in 5 W/m2
08:00 43.2 °F 42.4 °F 30.1 in Calm     97% 0 in 7 W/m2
08:05 43.2 °F 42.4 °F 30.1 in Calm     97% 0 in 7 W/m2
08:10 43.3 °F 42.6 °F 30.1 in Calm     97% 0 in 9 W/m2
08:15 43.3 °F 42.6 °F 30.1 in Calm     97% 0 in 11 W/m2
08:20 43.3 °F 42.6 °F 30.1 in Calm     97% 0 in 14 W/m2
08:25 43.3 °F 42.6 °F 30.1 in Calm     97% 0 in 19 W/m2
08:30 43.5 °F 42.8 °F 30.1 in Calm     97% 0 in 23 W/m2
08:35 43.5 °F 42.8 °F 30.1 in West 0.9 mph 1 mph 97% 0 in 25 W/m2
08:40 43.5 °F 42.8 °F 30.1 in Calm   1 mph 97% 0 in 30 W/m2
08:45 43.5 °F 42.8 °F 30.1 in Calm     97% 0 in 26 W/m2
08:50 43.7 °F 43 °F 30.1 in Calm   1 mph 97% 0 in 33 W/m2
08:55 43.9 °F 43.2 °F 30.1 in Calm   1 mph 97% 0 in 32 W/m2
09:00 43.9 °F 43.2 °F 30.1 in Calm   1 mph 97% 0 in 42 W/m2
09:05 44.1 °F 43.3 °F 30.1 in Calm     97% 0 in 39 W/m2
09:10 44.1 °F 43.3 °F 30.1 in Calm   1 mph 97% 0 in 42 W/m2
09:15 44.1 °F 43.3 °F 30.1 in Calm     97% 0 in 42 W/m2
09:20 44.2 °F 43.5 °F 30.1 in Calm     97% 0 in 42 W/m2
09:25 44.2 °F 43.5 °F 30.1 in ESE 2 mph 2 mph 97% 0 in 56 W/m2
09:30 44.4 °F 43.7 °F 30.1 in Calm   1 mph 97% 0 in 51 W/m2
09:35 44.6 °F 43.9 °F 30.1 in ESE 2 mph 2 mph 97% 0 in 40 W/m2
09:40 44.8 °F 44.1 °F 30.1 in Calm     97% 0 in 35 W/m2
09:45 44.8 °F 44.1 °F 30.1 in Calm   1 mph 97% 0 in 30 W/m2
09:50 44.8 °F 44.1 °F 30.1 in Calm     97% 0 in 23 W/m2
09:55 45 °F 44.2 °F 30.1 in Calm     97% 0 in 21 W/m2
10:00 45 °F 44.2 °F 30.1 in Calm     97% 0 in 23 W/m2
10:05 45 °F 44.2 °F 30.1 in WSW 0.9 mph 2 mph 97% 0 in 33 W/m2
10:10 45.1 °F 44.4 °F 30.1 in Calm   2 mph 97% 0 in 40 W/m2
10:16 45.1 °F 44.4 °F 30.1 in Calm   1 mph 97% 0 in 53 W/m2
10:21 45.3 °F 44.6 °F 30.1 in Calm     97% 0 in 76 W/m2
10:26 45.5 °F 44.8 °F 30.1 in Calm   1 mph 97% 0 in 72 W/m2
10:31 45.7 °F 45 °F 30.1 in Calm     97% 0 in 83 W/m2
10:36 45.9 °F 45.1 °F 30.1 in Calm     97% 0 in 81 W/m2
10:41 46.2 °F 45.5 °F 30.1 in Calm     97% 0 in 93 W/m2
10:46 46.4 °F 45.7 °F 30.1 in Calm     97% 0 in 125 W/m2
10:51 46.6 °F 45.9 °F 30.1 in West 0.9 mph 2 mph 97% 0 in 123 W/m2
10:56 46.8 °F 46 °F 30.1 in Calm     97% 0 in 93 W/m2
11:01 46.9 °F 46.2 °F 30.1 in Calm     97% 0 in 130 W/m2
11:06 47.3 °F 46.6 °F 30.1 in Calm     97% 0 in 144 W/m2
11:11 47.7 °F 46.9 °F 30.1 in West 0.9 mph 1 mph 97% 0 in 118 W/m2
11:16 48 °F 47.1 °F 30.1 in NE 2 mph 2 mph 97% 0 in 149 W/m2
11:21 48.4 °F 47.5 °F 30.1 in ENE 0.9 mph 2 mph 97% 0 in 165 W/m2
11:26 48.7 °F 47.7 °F 30.1 in Calm     96% 0 in 158 W/m2
11:31 49.1 °F 48 °F 30.1 in Calm   2 mph 96% 0 in 148 W/m2
11:36 49.3 °F 48.2 °F 30.1 in Calm   1 mph 96% 0 in 118 W/m2
11:41 49.6 °F 48.2 °F 30.1 in Calm     95% 0 in 104 W/m2
11:46 49.8 °F 48.4 °F 30.1 in Calm   1 mph 95% 0 in 109 W/m2
11:51 50.2 °F 48.7 °F 30.1 in Calm     95% 0 in 93 W/m2
11:56 50.4 °F 48.9 °F 30.1 in Calm   1 mph 95% 0 in 74 W/m2
12:01 50.7 °F 49.1 °F 30.1 in Calm   2 mph 94% 0 in 77 W/m2
12:06 50.9 °F 49.3 °F 30.1 in Calm     94% 0 in 113 W/m2
12:11 51.3 °F 49.6 °F 30.1 in Calm   2 mph 94% 0 in 139 W/m2
12:16 51.4 °F 49.5 °F 30.1 in Calm     93% 0 in 148 W/m2
12:21 51.6 °F 49.6 °F 30.1 in Calm     93% 0 in 151 W/m2
12:26 52 °F 50 °F 30.1 in Calm     93% 0 in 142 W/m2
12:31 52.2 °F 49.8 °F 30.1 in Calm     92% 0 in 156 W/m2
12:36 52.5 °F 50.2 °F 30.1 in ENE 0.9 mph 2 mph 92% 0 in 120 W/m2
12:41 52.9 °F 50.5 °F 30.1 in East 2 mph 3 mph 92% 0 in 142 W/m2
12:46 53.2 °F 50.7 °F 30.1 in Calm   3 mph 91% 0 in 178 W/m2
12:51 53.4 °F 50.9 °F 30.1 in Calm   2 mph 91% 0 in 169 W/m2
12:56 54 °F 51.1 °F 30.1 in Calm   3 mph 90% 0 in 155 W/m2
13:01 54.3 °F 51.4 °F 30.1 in ESE 2 mph 6 mph 90% 0 in 151 W/m2
13:06 54.7 °F 51.4 °F 30.1 in ESE 0.9 mph 3 mph 89% 0 in 160 W/m2
13:11 55 °F 51.6 °F 30.1 in Calm   6 mph 88% 0 in 165 W/m2
13:16 55.6 °F 51.8 °F 30.1 in NE 4 mph 4 mph 87% 0 in 158 W/m2
13:21 55.9 °F 51.8 °F 30.1 in NE 2.9 mph 3 mph 86% 0 in 149 W/m2
13:26 56.7 °F 51.8 °F 30.1 in Calm   3 mph 84% 0 in 179 W/m2
13:31 57 °F 52.2 °F 30.1 in ENE 2 mph 2 mph 84% 0 in 142 W/m2
13:36 57.6 °F 52.2 °F 30.1 in NNE 0.9 mph 3 mph 82% 0 in 139 W/m2
13:41 57.9 °F 52.2 °F 30.1 in ENE 0.9 mph 3 mph 81% 0 in 137 W/m2
13:46 58.3 °F 52.2 °F 30.1 in NW 0.9 mph 3 mph 80% 0 in 165 W/m2
13:51 58.5 °F 52 °F 30.1 in NE 0.9 mph 2 mph 79% 0 in 135 W/m2
13:56 58.6 °F 52.2 °F 30.1 in ENE 0.9 mph 4 mph 79% 0 in 146 W/m2
14:01 58.8 °F 52 °F 30.1 in West 2.9 mph 4 mph 78% 0 in 121 W/m2
14:06 58.8 °F 52 °F 30.1 in WNW 0.9 mph 2 mph 78% 0 in 98 W/m2
14:11 58.8 °F 52 °F 30.1 in NNW 0.9 mph 3 mph 78% 0 in 116 W/m2
14:16 58.8 °F 52 °F 30.1 in NNW 2 mph 3 mph 78% 0 in 128 W/m2
14:21 58.8 °F 52 °F 30 in WNW 4 mph 4 mph 78% 0 in 104 W/m2
14:26 58.8 °F 52 °F 30.1 in NE 4 mph 4 mph 78% 0 in 90 W/m2
14:31 58.8 °F 52 °F 30.1 in WSW 2.9 mph 4 mph 78% 0 in 100 W/m2
14:36 58.8 °F 52 °F 30.1 in SW 2.9 mph 3 mph 78% 0 in 58 W/m2
14:41 58.8 °F 52 °F 30.1 in West 2.9 mph 5 mph 78% 0 in 77 W/m2
14:46 58.8 °F 52 °F 30.1 in SE 2 mph 4 mph 78% 0 in 56 W/m2
14:51 58.6 °F 51.8 °F 30.1 in WSW 2.9 mph 5 mph 78% 0 in 33 W/m2
14:56 58.5 °F 52 °F 30.1 in WSW 4 mph 6 mph 79% 0 in 40 W/m2
15:01 57.9 °F 51.8 °F 30.1 in Calm   5 mph 80% 0 in 44 W/m2
15:06 57.6 °F 52.2 °F 30.1 in Calm   8 mph 82% 0 in 40 W/m2
15:11 57.2 °F 52.2 °F 30.1 in Calm   4 mph 83% 0 in 49 W/m2
15:16 56.8 °F 52 °F 30.1 in Calm   7 mph 84% 0 in 42 W/m2
15:21 56.8 °F 52.3 °F 30.1 in Calm   2 mph 85% 0 in 42 W/m2
15:26 56.7 °F 52.2 °F 30.1 in Calm   1 mph 85% 0 in 40 W/m2
15:32 56.7 °F 52.5 °F 30.1 in NE 0.9 mph 1 mph 86% 0 in 37 W/m2
15:37 56.5 °F 52.3 °F 30.1 in NE 0.9 mph 1 mph 86% 0 in 35 W/m2
15:42 56.5 °F 52.7 °F 30.1 in Calm   2 mph 87% 0 in 23 W/m2
15:47 56.3 °F 52.9 °F 30.1 in Calm     88% 0 in 39 W/m2
15:52 56.1 °F 52.7 °F 30.1 in Calm   1 mph 88% 0 in 30 W/m2
15:57 56.1 °F 52.7 °F 30.1 in Calm     88% 0 in 30 W/m2
16:02 56.1 °F 52.9 °F 30.1 in Calm   1 mph 89% 0 in 33 W/m2
16:07 55.9 °F 52.7 °F 30.1 in Calm     89% 0 in 28 W/m2
16:12 55.9 °F 52.7 °F 30.1 in Calm     89% 0 in 19 W/m2
16:17 55.9 °F 52.7 °F 30.1 in Calm     89% 0 in 12 W/m2
16:22 55.8 °F 52.9 °F 30.1 in Calm     90% 0 in 9 W/m2
16:27 55.8 °F 52.9 °F 30.1 in Calm   1 mph 90% 0 in 7 W/m2
16:32 55.6 °F 52.7 °F 30.1 in Calm     90% 0 in 5 W/m2
16:37 55.6 °F 52.7 °F 30.1 in Calm   1 mph 90% 0 in 0 W/m2
16:42 55.4 °F 52.9 °F 30.1 in Calm     91% 0 in 5 W/m2
16:47 55.2 °F 52.7 °F 30.1 in Calm     91% 0 in 5 W/m2
16:52 55.2 °F 52.7 °F 30.1 in Calm     91% 0 in 0 W/m2
16:57 55 °F 52.5 °F 30.1 in Calm     91% 0 in 0 W/m2
17:02 55 °F 52.5 °F 30.1 in Calm     91% 0 in 0 W/m2
17:07 54.9 °F 52.3 °F 30.1 in Calm     91% 0 in 0 W/m2
17:12 54.9 °F 52.5 °F 30.1 in Calm     92% 0 in 0 W/m2
17:17 54.7 °F 52.2 °F 30.1 in Calm     91% 0 in 0 W/m2
17:22 54.5 °F 52.2 °F 30.1 in Calm     92% 0 in 0 W/m2
17:27 54.3 °F 52 °F 30.1 in Calm     92% 0 in 0 W/m2
17:32 54.1 °F 51.8 °F 30.1 in Calm     92% 0 in 0 W/m2
17:37 54 °F 51.6 °F 30.1 in Calm     92% 0 in 0 W/m2
17:42 54 °F 51.6 °F 30.1 in Calm     92% 0 in 0 W/m2
17:47 53.8 °F 51.4 °F 30.1 in Calm     92% 0 in 0 W/m2
17:52 53.8 °F 51.4 °F 30.1 in Calm     92% 0 in 0 W/m2
17:57 53.6 °F 51.3 °F 30.1 in Calm     92% 0 in 0 W/m2
18:02 53.4 °F 51.4 °F 30.1 in Calm     93% 0 in 0 W/m2
18:07 53.4 °F 51.4 °F 30.1 in Calm     93% 0 in 0 W/m2
18:12 53.4 °F 51.4 °F 30.1 in Calm     93% 0 in 0 W/m2
18:17 53.4 °F 51.4 °F 30.1 in Calm     93% 0 in 0 W/m2
18:22 53.4 °F 51.4 °F 30.1 in Calm     93% 0 in 0 W/m2
18:27 53.2 °F 51.3 °F 30.1 in Calm     93% 0 in 0 W/m2
18:32 53.2 °F 51.3 °F 30.1 in Calm     93% 0 in 0 W/m2
18:37 53.2 °F 51.3 °F 30.1 in Calm     93% 0 in 0 W/m2
18:42 53.2 °F 51.3 °F 30.1 in Calm     93% 0 in 0 W/m2
18:47 53.2 °F 51.3 °F 30.1 in Calm     93% 0 in 0 W/m2
18:52 53.2 °F 51.3 °F 30.1 in Calm     93% 0 in 0 W/m2
18:57 53.1 °F 51.1 °F 30.1 in NE 0.9 mph 1 mph 93% 0 in 0 W/m2
19:02 53.1 °F 51.1 °F 30.1 in Calm     93% 0 in 0 W/m2
19:07 52.9 °F 50.9 °F 30.1 in NE 0.9 mph 2 mph 93% 0 in 0 W/m2
Juneau County Weather
Compliments of Weather Underground - 2 mb